Time;durP1;ratioP1;P1;durP2;ratioP2;P2;SDS_P1;SDS_P2;PMS_P1;PMS_P2;Temp;Humidity;BMP_temperature;BMP_pressure;BME280_temperature;BME280_humidity;BME280_pressure;Samples;Min_cycle;Max_cycle;Signal;HPM_P1;HPM_P2
2023/07/07 05:16:47;;;;;;;28.20;5.30;;;;;;;;;;6155549;23;20028;-78
2023/07/07 05:19:18;;;;;;;17.38;4.82;;;;;;;;;;6176568;23;20056;-78
2023/07/07 05:21:44;;;;;;;13.98;5.07;;;;;;;;;;6179231;23;20016;-78
2023/07/07 05:24:13;;;;;;;20.05;4.97;;;;;;;;;;6178425;23;20017;-77
2023/07/07 05:26:39;;;;;;;13.50;5.30;;;;;;;;;;6179536;23;20055;-78
2023/07/07 05:29:06;;;;;;;11.35;4.78;;;;;;;;;;6178127;23;20017;-78
2023/07/07 05:31:37;;;;;;;10.55;4.55;;;;;;;;;;6178703;23;20019;-77
2023/07/07 05:34:03;;;;;;;11.63;4.75;;;;;;;;;;6176754;23;20024;-78
2023/07/07 05:36:29;;;;;;;10.05;3.50;;;;;;;;;;6175810;23;20421;-78
2023/07/07 05:38:55;;;;;;;16.38;5.57;;;;;;;;;;6180814;23;20044;-78
2023/07/07 05:41:21;;;;;;;18.75;5.00;;;;;;;;;;6178662;23;20067;-78
2023/07/07 05:43:47;;;;;;;13.60;4.70;;;;;;;;;;6180562;23;20013;-78
2023/07/07 05:46:15;;;;;;;22.98;6.38;;;;;;;;;;6179956;23;20781;-79
2023/07/07 05:48:41;;;;;;;16.25;7.20;;;;;;;;;;6180700;23;20658;-79
2023/07/07 05:51:08;;;;;;;19.08;7.25;;;;;;;;;;6178309;23;20095;-78
2023/07/07 05:53:35;;;;;;;19.98;6.82;;;;;;;;;;6181078;23;20463;-78
2023/07/07 05:56:08;;;;;;;15.45;5.50;;;;;;;;;;6180791;23;20786;-78
2023/07/07 05:58:34;;;;;;;13.40;6.28;;;;;;;;;;6181240;23;20092;-78
2023/07/07 06:01:00;;;;;;;17.67;5.93;;;;;;;;;;6178662;23;20013;-79
2023/07/07 06:03:26;;;;;;;15.40;6.10;;;;;;;;;;6182064;23;20005;-78
2023/07/07 06:05:52;;;;;;;17.40;5.35;;;;;;;;;;6180347;23;20051;-79
2023/07/07 06:08:18;;;;;;;12.88;5.00;;;;;;;;;;6179161;23;20380;-79
2023/07/07 06:10:51;;;;;;;13.52;5.78;;;;;;;;;;6178795;23;20341;-78
2023/07/07 06:13:17;;;;;;;14.73;5.30;;;;;;;;;;6181723;23;20008;-78
2023/07/07 06:15:46;;;;;;;12.23;4.45;;;;;;;;;;6178917;23;20017;-79
2023/07/07 06:18:12;;;;;;;9.43;4.15;;;;;;;;;;6178540;23;20025;-79
2023/07/07 06:20:39;;;;;;;13.35;5.20;;;;;;;;;;6179420;23;20155;-79
2023/07/07 06:23:07;;;;;;;11.57;4.18;;;;;;;;;;6178946;23;20016;-79
2023/07/07 06:25:33;;;;;;;15.60;4.35;;;;;;;;;;6179322;23;20013;-79
2023/07/07 06:27:59;;;;;;;11.75;4.20;;;;;;;;;;6180801;23;20067;-79
2023/07/07 06:30:25;;;;;;;12.27;4.50;;;;;;;;;;6180019;23;20687;-78
2023/07/07 06:32:51;;;;;;;10.95;4.05;;;;;;;;;;6178993;23;20099;-79
2023/07/07 06:35:17;;;;;;;10.60;5.68;;;;;;;;;;6181231;23;20080;-79
2023/07/07 06:37:43;;;;;;;14.73;4.93;;;;;;;;;;6178562;23;20016;-79
2023/07/07 06:40:10;;;;;;;10.45;4.93;;;;;;;;;;6179474;23;20017;-79
2023/07/07 06:42:36;;;;;;;13.32;5.28;;;;;;;;;;6178448;23;20005;-79
2023/07/07 06:45:02;;;;;;;25.63;4.55;;;;;;;;;;6179326;23;20783;-79
2023/07/07 06:47:28;;;;;;;11.88;4.55;;;;;;;;;;6179275;23;20009;-79
2023/07/07 06:49:54;;;;;;;13.52;4.90;;;;;;;;;;6179227;23;20019;-79
2023/07/07 06:52:20;;;;;;;12.05;4.97;;;;;;;;;;6179456;23;20061;-79
2023/07/07 06:54:46;;;;;;;19.65;4.75;;;;;;;;;;6179112;23;20429;-79
2023/07/07 06:57:12;;;;;;;15.73;4.90;;;;;;;;;;6181100;23;20016;-79
2023/07/07 06:59:39;;;;;;;10.18;4.45;;;;;;;;;;6182775;23;20009;-79
2023/07/07 07:02:05;;;;;;;13.60;5.00;;;;;;;;;;6181327;23;20012;-79
2023/07/07 07:04:31;;;;;;;14.52;4.50;;;;;;;;;;6180673;23;20084;-79
2023/07/07 07:06:57;;;;;;;15.77;5.07;;;;;;;;;;6180837;23;20012;-78
2023/07/07 07:09:23;;;;;;;12.93;5.00;;;;;;;;;;6181812;23;20013;-79
2023/07/07 07:11:49;;;;;;;14.23;4.97;;;;;;;;;;6181246;23;20013;-79
2023/07/07 07:14:15;;;;;;;18.08;5.35;;;;;;;;;;6180472;23;20341;-78
2023/07/07 07:16:41;;;;;;;15.55;5.25;;;;;;;;;;6180699;23;20091;-79
2023/07/07 07:19:07;;;;;;;14.38;5.00;;;;;;;;;;6180880;23;20013;-78
2023/07/07 07:21:33;;;;;;;13.45;5.30;;;;;;;;;;6182950;23;20394;-79
2023/07/07 07:23:59;;;;;;;11.80;5.05;;;;;;;;;;6180278;23;20345;-79
2023/07/07 07:26:25;;;;;;;16.83;5.00;;;;;;;;;;6155707;23;20005;-79
2023/07/07 07:28:52;;;;;;;11.70;4.75;;;;;;;;;;6181053;23;20512;-79
2023/07/07 07:31:18;;;;;;;11.43;5.00;;;;;;;;;;6180595;23;20013;-79
2023/07/07 07:33:44;;;;;;;14.13;4.45;;;;;;;;;;6180729;23;20021;-79
2023/07/07 07:39:14;;;;;;;13.60;4.75;;;;;;;;;;6150668;23;20087;-78
2023/07/07 07:42:04;;;;;;;12.68;4.15;;;;;;;;;;6152176;23;20017;-78
2023/07/07 07:45:14;;;;;;;12.98;4.88;;;;;;;;;;6152404;23;20013;-78
2023/07/07 07:50:54;;;;;;;12.32;4.03;;;;;;;;;;6004224;23;20038;-78
2023/07/07 07:53:53;;;;;;;11.40;3.92;;;;;;;;;;6030260;23;20029;-78
2023/07/07 07:56:35;;;;;;;11.93;4.43;;;;;;;;;;6125848;23;20013;-78
2023/07/07 07:59:05;;;;;;;17.17;4.47;;;;;;;;;;6150531;23;20890;-78
2023/07/07 08:01:34;;;;;;;12.48;4.50;;;;;;;;;;6149868;23;20021;-79
2023/07/07 08:04:19;;;;;;;;;;;;;;;;;;;;;
2023/07/07 08:06:54;;;;;;;10.95;4.15;;;;;;;;;;6151670;23;20096;-79
2023/07/07 08:09:34;;;;;;;10.70;4.35;;;;;;;;;;6149970;23;20024;-78
2023/07/07 08:12:05;;;;;;;11.65;4.97;;;;;;;;;;6121259;23;20023;-79
2023/07/07 08:14:35;;;;;;;9.65;4.07;;;;;;;;;;6152293;23;20006;-79
2023/07/07 08:17:05;;;;;;;10.50;4.40;;;;;;;;;;6149279;23;20399;-79
2023/07/07 08:19:35;;;;;;;12.43;4.65;;;;;;;;;;6155255;23;20015;-78
2023/07/07 08:22:15;;;;;;;11.43;4.30;;;;;;;;;;6148262;23;20017;-79
2023/07/07 08:25:01;;;;;;;11.40;4.20;;;;;;;;;;6124692;23;20017;-79
2023/07/07 08:27:43;;;;;;;13.25;4.88;;;;;;;;;;6125404;23;20013;-78
2023/07/07 08:30:24;;;;;;;14.82;4.68;;;;;;;;;;6119254;23;20104;-79
2023/07/07 08:33:02;;;;;;;15.15;5.20;;;;;;;;;;6094169;23;20844;-78
2023/07/07 08:35:39;;;;;;;12.35;4.50;;;;;;;;;;6119316;23;20137;-79
2023/07/07 08:38:45;;;;;;;14.57;5.03;;;;;;;;;;6060310;23;20054;-79
2023/07/07 08:41:29;;;;;;;;;;;;;;;;;;;;;
2023/07/07 08:47:07;;;;;;;;;;;;;;;;;;;;;
2023/07/07 08:49:57;;;;;;;10.45;4.53;;;;;;;;;;6059885;23;20113;-79
2023/07/07 08:52:49;;;;;;;12.75;4.82;;;;;;;;;;6036407;23;20022;-79
2023/07/07 08:55:59;;;;;;;;;;;;;;;;;;;;;
2023/07/07 08:58:50;;;;;;;11.95;4.88;;;;;;;;;;6151461;23;20088;-79
2023/07/07 09:01:31;;;;;;;;;;;;;;;;;;;;;
2023/07/07 09:04:32;;;;;;;;;;;;;;;;;;;;;
2023/07/07 09:16:29;;;;;;;12.82;4.50;;;;;;;;;;6004008;23;20075;-78
2023/07/07 09:38:40;;;;;;;16.52;4.25;;;;;;;;;;6072145;23;20016;-79
2023/07/07 09:42:04;;;;;;;;;;;;;;;;;;;;;
2023/07/07 09:54:01;;;;;;;;;;;;;;;;;;;;;
2023/07/07 10:00:21;;;;;;;13.65;4.80;;;;;;;;;;5919050;24;20444;-78
2023/07/07 10:07:03;;;;;;;;;;;;;;;;;;;;;
2023/07/07 15:53:18;;;;;;;8.10;3.35;;;;;;;;;;6179631;23;20028;-79
2023/07/07 16:03:33;;;;;;;8.20;3.35;;;;;;;;;;6119480;23;20450;-79
2023/07/07 17:41:42;;;;;;;10.65;3.35;;;;;;;;;;6167567;23;20024;-79
2023/07/07 18:29:08;;;;;;;15.93;4.80;;;;;;;;;;6115092;23;20061;-79
2023/07/07 18:42:23;;;;;;;13.13;5.88;;;;;;;;;;6174842;23;20029;-79
2023/07/07 18:58:19;;;;;;;10.32;4.70;;;;;;;;;;6163147;23;20056;-77
2023/07/07 20:09:24;;;;;;;6.38;3.47;;;;;;;;;;6183507;23;20413;-78
2023/07/07 20:11:58;;;;;;;11.02;3.80;;;;;;;;;;6179919;23;20091;-78
2023/07/07 20:14:31;;;;;;;9.40;3.90;;;;;;;;;;6181315;23;20029;-78
2023/07/07 20:16:58;;;;;;;6.95;3.40;;;;;;;;;;6180396;23;20032;-78
2023/07/07 20:19:24;;;;;;;11.40;3.75;;;;;;;;;;6177279;23;20017;-78
2023/07/07 20:21:50;;;;;;;10.48;4.15;;;;;;;;;;6182369;23;20017;-78
2023/07/07 20:24:19;;;;;;;10.07;3.72;;;;;;;;;;6180369;23;20036;-78
2023/07/07 20:26:48;;;;;;;12.00;4.00;;;;;;;;;;6182258;23;20496;-78
2023/07/07 20:29:15;;;;;;;9.23;3.85;;;;;;;;;;6179896;23;20055;-78
2023/07/07 20:31:41;;;;;;;12.90;4.30;;;;;;;;;;6182230;23;20013;-78
2023/07/07 20:34:08;;;;;;;11.73;4.13;;;;;;;;;;6179978;23;20122;-78
2023/07/07 20:36:34;;;;;;;10.52;4.30;;;;;;;;;;6179397;23;20094;-78
2023/07/07 20:39:00;;;;;;;11.50;3.92;;;;;;;;;;6179897;23;20125;-78
2023/07/07 20:41:31;;;;;;;8.52;3.60;;;;;;;;;;6179655;23;20012;-78
2023/07/07 20:44:00;;;;;;;11.43;3.97;;;;;;;;;;6179832;23;20037;-78
2023/07/07 20:46:29;;;;;;;8.10;4.25;;;;;;;;;;6180718;23;20012;-78
2023/07/07 20:48:56;;;;;;;9.18;4.30;;;;;;;;;;6179381;23;20032;-78
2023/07/07 20:51:23;;;;;;;10.63;4.20;;;;;;;;;;6180065;23;20020;-78
2023/07/07 21:39:07;;;;;;;;;;;;;;;;;;;;;
2023/07/07 22:36:33;;;;;;;;;;;;;;;;;;;;;
